createdAt,value
2018-11-23T00:00:31.836Z,17.33
2018-11-23T00:03:01.447Z,16.73
2018-11-23T00:05:30.602Z,20.87
2018-11-23T00:08:00.334Z,15.77
2018-11-23T00:10:30.994Z,16.93
2018-11-23T00:13:00.458Z,18.03
2018-11-23T00:15:29.638Z,18.87
2018-11-23T00:17:58.724Z,16.23
2018-11-23T00:20:29.199Z,17.07
2018-11-23T00:22:58.467Z,16.83
2018-11-23T00:25:28.032Z,15.33
2018-11-23T00:27:57.702Z,14.73
2018-11-23T00:30:28.263Z,13.57
2018-11-23T00:32:57.747Z,13.87
2018-11-23T00:35:28.944Z,13.67
2018-11-23T00:37:58.182Z,15.97
2018-11-23T00:40:28.330Z,14.70
2018-11-23T00:42:57.650Z,15.40
2018-11-23T00:45:27.115Z,12.90
2018-11-23T00:47:57.154Z,13.73
2018-11-23T00:50:27.997Z,12.87
2018-11-23T00:52:58.310Z,14.17
2018-11-23T00:55:28.250Z,12.90
2018-11-23T00:57:57.339Z,11.63
2018-11-23T01:00:28.635Z,14.53
2018-11-23T01:02:58.695Z,12.67
2018-11-23T01:05:28.022Z,13.77
2018-11-23T01:07:57.538Z,10.83
2018-11-23T01:10:27.822Z,13.73
2018-11-23T01:12:57.754Z,12.40
2018-11-23T01:15:26.873Z,14.40
2018-11-23T01:17:55.947Z,13.57
2018-11-23T01:20:26.391Z,14.03
2018-11-23T01:22:56.159Z,15.80
2018-11-23T01:25:26.411Z,12.60
2018-11-23T01:27:56.074Z,11.80
2018-11-23T01:30:27.675Z,12.47
2018-11-23T01:32:56.716Z,12.73
2018-11-23T01:35:25.951Z,11.80
2018-11-23T01:37:55.578Z,14.27
2018-11-23T01:40:29.070Z,10.07
2018-11-23T01:42:58.783Z,10.87
2018-11-23T01:45:27.924Z,11.77
2018-11-23T01:47:57.166Z,10.80
2018-11-23T01:50:30.379Z,11.33
2018-11-23T01:52:59.730Z,11.83
2018-11-23T01:55:28.871Z,12.57
2018-11-23T01:57:58.103Z,9.83
2018-11-23T02:00:28.353Z,11.17
2018-11-23T02:02:57.778Z,12.40
2018-11-23T02:05:26.898Z,10.87
2018-11-23T02:07:55.987Z,10.53
2018-11-23T02:10:25.486Z,9.70
2018-11-23T02:12:54.775Z,10.43
2018-11-23T02:15:24.186Z,11.03
2018-11-23T02:17:53.723Z,13.10
2018-11-23T02:20:23.362Z,10.93
2018-11-23T02:22:52.702Z,10.13
2018-11-23T02:25:21.963Z,12.93
2018-11-23T02:27:51.618Z,13.83
2018-11-23T02:30:22.994Z,13.37
2018-11-23T02:32:52.456Z,12.03
2018-11-23T02:35:21.669Z,11.90
2018-11-23T02:37:51.115Z,15.20
2018-11-23T02:40:20.942Z,11.50
2018-11-23T02:42:50.618Z,12.43
2018-11-23T02:45:22.763Z,12.53
2018-11-23T02:47:52.266Z,12.43
2018-11-23T02:50:21.454Z,19.23
2018-11-23T02:52:50.830Z,12.93
2018-11-23T02:55:20.511Z,12.07
2018-11-23T02:57:49.775Z,16.10
2018-11-23T03:00:20.258Z,12.27
2018-11-23T03:02:49.762Z,13.10
2018-11-23T03:05:21.238Z,12.37
2018-11-23T03:07:50.607Z,13.47
2018-11-23T03:10:20.016Z,12.93
2018-11-23T03:12:49.718Z,12.97
2018-11-23T03:15:19.990Z,15.27
2018-11-23T03:17:49.634Z,11.13
2018-11-23T03:20:20.078Z,13.37
2018-11-23T03:22:49.590Z,13.07
2018-11-23T03:25:18.698Z,13.60
2018-11-23T03:27:48.298Z,17.87
2018-11-23T03:30:22.070Z,12.93
2018-11-23T03:32:52.023Z,15.63
2018-11-23T03:35:21.890Z,14.67
2018-11-23T03:37:51.221Z,14.67
2018-11-23T03:40:20.679Z,17.57
2018-11-23T03:42:49.849Z,19.07
2018-11-23T03:45:19.039Z,16.47
2018-11-23T03:47:48.371Z,16.50
2018-11-23T03:50:18.103Z,17.93
2018-11-23T03:52:47.849Z,17.43
2018-11-23T03:55:17.198Z,16.60
2018-11-23T03:57:46.355Z,16.57
2018-11-23T04:00:21.291Z,15.23
2018-11-23T04:02:50.742Z,19.23
2018-11-23T04:05:20.177Z,17.13
2018-11-23T04:07:49.548Z,22.67
2018-11-23T04:10:18.967Z,20.47
2018-11-23T04:12:48.090Z,18.13
2018-11-23T04:15:17.514Z,18.17
2018-11-23T04:17:46.594Z,19.33
2018-11-23T04:20:16.770Z,18.73
2018-11-23T04:22:46.265Z,20.10
2018-11-23T04:25:15.674Z,18.03
2018-11-23T04:27:44.911Z,19.83
2018-11-23T04:30:16.061Z,21.10
2018-11-23T04:32:46.798Z,19.03
2018-11-23T04:35:17.272Z,18.53
2018-11-23T04:37:46.815Z,17.73
2018-11-23T04:40:16.939Z,18.23
2018-11-23T04:42:46.038Z,21.50
2018-11-23T04:45:15.406Z,18.80
2018-11-23T04:47:44.628Z,19.03
2018-11-23T04:50:14.926Z,16.83
2018-11-23T04:52:52.211Z,15.93
2018-11-23T04:55:21.769Z,18.90
2018-11-23T04:57:53.803Z,35.37
2018-11-23T05:00:22.023Z,32.53
2018-11-23T05:02:51.331Z,37.37
2018-11-23T05:05:20.611Z,34.93
2018-11-23T05:07:49.715Z,31.50
2018-11-23T05:10:19.051Z,28.33
2018-11-23T05:12:48.602Z,25.70
2018-11-23T05:15:18.571Z,55.50
2018-11-23T05:17:48.235Z,31.97
2018-11-23T05:20:17.766Z,28.20
2018-11-23T05:22:47.094Z,24.50
2018-11-23T05:25:17.429Z,20.63
2018-11-23T05:27:46.882Z,19.73
2018-11-23T05:30:20.418Z,22.13
2018-11-23T05:32:49.703Z,22.90
2018-11-23T05:35:19.510Z,24.63
2018-11-23T05:37:48.771Z,31.43
2018-11-23T05:40:22.217Z,22.23
2018-11-23T05:42:54.780Z,24.77
2018-11-23T05:45:23.997Z,28.63
2018-11-23T05:47:53.143Z,43.73
2018-11-23T05:50:23.970Z,42.50
2018-11-23T05:52:53.278Z,86.10
2018-11-23T05:55:22.555Z,116.60
2018-11-23T05:57:52.259Z,101.90
2018-11-23T06:00:24.631Z,60.10
2018-11-23T06:02:53.802Z,96.27
2018-11-23T06:05:23.034Z,90.03
2018-11-23T06:07:52.341Z,54.30
2018-11-23T06:10:22.258Z,46.10
2018-11-23T06:12:51.458Z,38.77
2018-11-23T06:15:23.501Z,37.77
2018-11-23T06:17:52.887Z,23.37
2018-11-23T06:20:23.810Z,27.53
2018-11-23T06:22:53.603Z,36.40
2018-11-23T06:25:32.061Z,51.43
2018-11-23T06:28:01.227Z,45.07
2018-11-23T06:30:30.440Z,29.77
2018-11-23T06:33:10.597Z,23.83
2018-11-23T06:35:39.871Z,18.90
2018-11-23T06:38:09.178Z,19.10
2018-11-23T06:40:38.847Z,17.90
2018-11-23T06:43:08.086Z,19.70
2018-11-23T06:45:40.180Z,15.63
2018-11-23T06:48:10.135Z,20.07
2018-11-23T06:50:39.355Z,20.77
2018-11-23T06:53:08.831Z,16.57
2018-11-23T06:55:38.242Z,19.43
2018-11-23T06:58:07.483Z,17.37
2018-11-23T07:00:36.969Z,17.20
2018-11-23T07:03:06.330Z,19.90
2018-11-23T07:05:35.590Z,19.13
2018-11-23T07:08:05.019Z,18.37
2018-11-23T07:10:34.230Z,19.23
2018-11-23T07:13:03.573Z,17.87
2018-11-23T07:15:33.231Z,22.60
2018-11-23T07:18:02.403Z,19.57
2018-11-23T07:20:31.579Z,22.20
2018-11-23T07:23:01.044Z,19.93
2018-11-23T07:25:31.319Z,21.30
2018-11-23T07:28:00.398Z,18.27
2018-11-23T07:30:30.118Z,17.90
2018-11-23T07:32:59.410Z,19.93
2018-11-23T07:35:28.612Z,20.20
2018-11-23T07:37:58.060Z,19.57
2018-11-23T07:40:40.818Z,20.23
2018-11-23T07:43:10.103Z,25.17
2018-11-23T07:45:39.238Z,19.60
2018-11-23T07:48:08.753Z,25.17
2018-11-23T07:50:38.146Z,31.90
2018-11-23T07:53:07.526Z,21.27
2018-11-23T07:55:36.834Z,21.17
2018-11-23T07:58:06.942Z,23.43
2018-11-23T08:00:36.147Z,20.00
2018-11-23T08:03:05.779Z,24.83
2018-11-23T08:05:34.935Z,21.47
2018-11-23T08:08:04.162Z,26.00
2018-11-23T08:10:32.154Z,22.77
2018-11-23T08:13:01.352Z,22.13
2018-11-23T08:15:30.682Z,26.33
2018-11-23T08:17:59.831Z,26.17
2018-11-23T08:20:28.992Z,25.50
2018-11-23T08:22:58.123Z,20.90
2018-11-23T08:25:27.390Z,30.17
2018-11-23T08:27:57.567Z,26.77
2018-11-23T08:30:28.135Z,26.10
2018-11-23T08:32:57.578Z,20.30
2018-11-23T08:35:26.775Z,21.80
2018-11-23T08:37:55.967Z,22.57
2018-11-23T08:40:26.483Z,23.93
2018-11-23T08:42:56.777Z,24.57
2018-11-23T08:45:27.067Z,21.67
2018-11-23T08:47:56.347Z,37.20
2018-11-23T08:50:26.815Z,26.37
2018-11-23T08:52:56.138Z,22.97
2018-11-23T08:55:25.443Z,21.40
2018-11-23T08:57:54.654Z,17.53
2018-11-23T09:00:26.415Z,21.63
2018-11-23T09:02:57.143Z,18.80
2018-11-23T09:05:26.864Z,19.80
2018-11-23T09:07:56.931Z,18.67
2018-11-23T09:10:27.838Z,17.50
2018-11-23T09:12:59.495Z,21.33
2018-11-23T09:15:28.810Z,16.07
2018-11-23T09:17:58.175Z,16.73
2018-11-23T09:20:27.584Z,16.13
2018-11-23T09:22:57.134Z,21.13
2018-11-23T09:25:26.267Z,17.20
2018-11-23T09:27:55.575Z,21.10
2018-11-23T09:30:26.214Z,15.97
2018-11-23T09:32:56.099Z,14.13
2018-11-23T09:35:25.390Z,18.40
2018-11-23T09:37:54.807Z,32.13
2018-11-23T09:40:25.455Z,21.13
2018-11-23T09:42:55.083Z,18.73
2018-11-23T09:45:25.566Z,18.27
2018-11-23T09:47:56.226Z,15.73
2018-11-23T09:50:26.069Z,16.57
2018-11-23T09:52:56.346Z,18.23
2018-11-23T09:55:26.111Z,14.60
2018-11-23T09:57:55.263Z,14.97
2018-11-23T10:00:33.116Z,16.07
2018-11-23T10:03:02.654Z,15.13
2018-11-23T10:05:32.321Z,18.30
2018-11-23T10:08:04.107Z,17.20
2018-11-23T10:10:33.204Z,20.60
2018-11-23T10:13:02.323Z,17.03
2018-11-23T10:15:32.353Z,15.50
2018-11-23T10:18:02.219Z,16.47
2018-11-23T10:20:32.250Z,16.10
2018-11-23T10:23:01.357Z,18.80
2018-11-23T10:25:31.650Z,20.47
2018-11-23T10:28:01.122Z,17.17
2018-11-23T10:30:32.709Z,18.07
2018-11-23T10:33:03.278Z,17.50
2018-11-23T10:35:32.503Z,20.80
2018-11-23T10:38:02.961Z,18.57
2018-11-23T10:40:33.703Z,17.33
2018-11-23T10:43:02.910Z,16.63
2018-11-23T10:45:33.011Z,18.43
2018-11-23T10:48:03.423Z,18.27
2018-11-23T10:50:34.175Z,16.83
2018-11-23T10:53:03.691Z,17.63
2018-11-23T10:55:33.995Z,16.60
2018-11-23T10:58:03.675Z,18.20
2018-11-23T11:00:38.215Z,17.70
2018-11-23T11:04:11.144Z,17.60
2018-11-23T11:06:45.440Z,16.03
2018-11-23T11:09:14.971Z,17.87
2018-11-23T11:11:44.262Z,18.83
2018-11-23T11:14:13.479Z,17.80
2018-11-23T11:16:42.918Z,21.00
2018-11-23T11:19:12.078Z,19.33
2018-11-23T11:21:41.349Z,24.23
2018-11-23T11:24:10.607Z,18.40
2018-11-23T11:26:39.884Z,16.67
2018-11-23T11:29:09.083Z,26.03
2018-11-23T11:31:38.707Z,19.60
2018-11-23T11:34:07.911Z,18.03
2018-11-23T11:36:37.407Z,17.67
2018-11-23T11:39:10.103Z,17.97
2018-11-23T11:41:39.467Z,18.83
2018-11-23T11:44:08.699Z,19.43
2018-11-23T11:46:38.198Z,19.87
2018-11-23T11:49:07.543Z,17.50
2018-11-23T11:51:36.959Z,19.90
2018-11-23T11:54:06.446Z,22.80
2018-11-23T11:56:35.667Z,19.33
2018-11-23T11:59:04.874Z,20.57
2018-11-23T12:01:34.652Z,19.67
2018-11-23T12:04:04.092Z,17.43
2018-11-23T12:06:33.279Z,16.83
2018-11-23T12:09:02.566Z,18.63
2018-11-23T12:11:31.642Z,17.07
2018-11-23T12:14:00.842Z,21.43
2018-11-23T12:16:30.274Z,15.43
2018-11-23T12:18:59.635Z,19.90
2018-11-23T12:21:28.751Z,18.23
2018-11-23T12:23:58.118Z,20.67
2018-11-23T12:26:27.695Z,14.47
2018-11-23T12:28:57.030Z,15.50
2018-11-23T12:31:26.686Z,21.37
2018-11-23T12:33:55.894Z,18.97
2018-11-23T12:36:25.019Z,23.03
2018-11-23T12:38:54.262Z,20.50
2018-11-23T12:41:23.521Z,15.80
2018-11-23T12:43:52.598Z,15.80
2018-11-23T12:46:21.905Z,15.53
2018-11-23T12:48:51.227Z,13.87
2018-11-23T12:51:20.494Z,12.53
2018-11-23T12:53:49.763Z,17.13
2018-11-23T12:56:19.019Z,13.13
2018-11-23T12:58:48.206Z,15.10
2018-11-23T13:01:17.643Z,19.37
2018-11-23T13:03:46.994Z,18.23
2018-11-23T13:06:16.190Z,16.83
2018-11-23T13:08:45.430Z,14.17
2018-11-23T13:11:14.613Z,14.30
2018-11-23T13:13:43.707Z,14.40
2018-11-23T13:16:13.147Z,16.87
2018-11-23T13:18:42.295Z,16.60
2018-11-23T13:21:11.423Z,19.00
2018-11-23T13:23:41.206Z,19.77
2018-11-23T13:26:10.511Z,18.23
2018-11-23T13:28:40.207Z,15.67
2018-11-23T13:31:09.348Z,19.27
2018-11-23T13:33:38.707Z,17.77
2018-11-23T13:36:09.159Z,18.33
2018-11-23T13:38:39.093Z,17.57
2018-11-23T13:41:08.363Z,16.63
2018-11-23T13:43:37.555Z,15.73
2018-11-23T13:46:07.298Z,16.37
2018-11-23T13:48:36.562Z,22.10
2018-11-23T13:51:05.854Z,26.63
2018-11-23T13:53:35.306Z,20.23
2018-11-23T13:56:04.654Z,16.77
2018-11-23T13:58:33.823Z,14.70
2018-11-23T14:01:03.391Z,18.57
2018-11-23T14:03:32.555Z,15.37
2018-11-23T14:06:01.647Z,17.03
2018-11-23T14:08:31.144Z,16.10
2018-11-23T14:11:00.471Z,12.90
2018-11-23T14:13:29.562Z,29.70
2018-11-23T14:15:59.078Z,14.67
2018-11-23T14:18:28.288Z,16.90
2018-11-23T14:20:57.474Z,11.83
2018-11-23T14:23:26.751Z,14.83
2018-11-23T14:25:55.978Z,12.77
2018-11-23T14:28:25.174Z,15.50
2018-11-23T14:30:54.495Z,9.87
2018-11-23T14:33:23.871Z,14.47
2018-11-23T14:35:53.046Z,13.60
2018-11-23T14:38:22.279Z,9.77
2018-11-23T14:40:51.603Z,15.17
2018-11-23T14:43:20.765Z,16.47
2018-11-23T14:45:50.003Z,12.57
2018-11-23T14:48:19.366Z,16.73
2018-11-23T14:50:50.035Z,14.13
2018-11-23T14:53:19.283Z,11.63
2018-11-23T14:55:48.586Z,15.37
2018-11-23T14:58:18.044Z,13.30
2018-11-23T15:00:47.302Z,18.77
2018-11-23T15:03:16.501Z,17.73
2018-11-23T15:05:45.826Z,15.17
2018-11-23T15:08:15.301Z,8.97
2018-11-23T15:10:44.594Z,11.43
2018-11-23T15:13:13.894Z,18.47
2018-11-23T15:15:43.216Z,13.97
2018-11-23T15:18:12.407Z,24.40
2018-11-23T15:20:45.583Z,13.53
2018-11-23T15:23:17.162Z,14.57
2018-11-23T15:25:46.723Z,17.90
2018-11-23T15:28:16.191Z,16.70
2018-11-23T15:30:46.339Z,12.77
2018-11-23T15:33:17.904Z,17.50
2018-11-23T15:35:47.595Z,14.10
2018-11-23T15:38:18.431Z,15.93
2018-11-23T15:40:47.712Z,14.00
2018-11-23T15:43:17.788Z,12.00
2018-11-23T15:45:47.046Z,14.30
2018-11-23T15:48:16.274Z,12.93
2018-11-23T15:50:45.574Z,14.23
2018-11-23T15:53:15.870Z,19.93
2018-11-23T15:55:45.087Z,10.70
2018-11-23T15:58:15.955Z,64.13
2018-11-23T16:00:46.422Z,47.13
2018-11-23T16:03:16.492Z,33.23
2018-11-23T16:05:45.798Z,29.80
2018-11-23T16:08:17.363Z,20.33
2018-11-23T16:10:46.687Z,31.40
2018-11-23T16:13:15.858Z,76.20
2018-11-23T16:15:45.478Z,70.47
2018-11-23T16:18:14.831Z,61.97
2018-11-23T16:20:45.563Z,53.23
2018-11-23T16:23:18.985Z,43.97
2018-11-23T16:25:48.902Z,31.73
2018-11-23T16:28:18.039Z,22.77
2018-11-23T16:30:48.753Z,29.13
2018-11-23T16:33:20.506Z,45.17
2018-11-23T16:35:49.986Z,26.30
2018-11-23T16:38:20.598Z,20.43
2018-11-23T16:40:51.778Z,22.80
2018-11-23T16:43:21.071Z,35.87
2018-11-23T16:45:50.272Z,24.03
2018-11-23T16:48:20.510Z,38.23
2018-11-23T16:50:49.794Z,40.20
2018-11-23T16:53:19.099Z,27.57
2018-11-23T16:55:48.486Z,34.23
2018-11-23T16:58:17.707Z,33.97
2018-11-23T17:00:48.133Z,24.43
2018-11-23T17:03:19.743Z,17.17
2018-11-23T17:05:50.653Z,14.80
2018-11-23T17:08:19.918Z,13.83
2018-11-23T17:10:49.161Z,11.57
2018-11-23T17:13:18.439Z,10.23
2018-11-23T17:15:47.726Z,13.27
2018-11-23T17:18:16.823Z,14.53
2018-11-23T17:20:46.805Z,16.77
2018-11-23T17:23:16.039Z,13.57
2018-11-23T17:25:45.118Z,15.43
2018-11-23T17:28:14.400Z,17.03
2018-11-23T17:30:43.835Z,16.20
2018-11-23T17:33:13.121Z,19.17
2018-11-23T17:35:42.478Z,20.07
2018-11-23T17:38:11.732Z,23.80
2018-11-23T17:40:41.603Z,26.20
2018-11-23T17:43:11.279Z,35.37
2018-11-23T17:45:40.466Z,38.07
2018-11-23T17:48:09.646Z,52.63
2018-11-23T17:50:40.130Z,82.67
2018-11-23T17:53:09.383Z,103.73
2018-11-23T17:55:38.571Z,87.93
2018-11-23T17:58:07.923Z,122.80
2018-11-23T18:00:39.249Z,125.03
2018-11-23T18:03:07.213Z,113.43
2018-11-23T18:05:37.128Z,104.27
2018-11-23T18:08:06.742Z,107.53
2018-11-23T18:10:36.106Z,144.20
2018-11-23T18:13:05.391Z,134.57
2018-11-23T18:15:35.447Z,176.90
2018-11-23T18:18:05.506Z,176.47
2018-11-23T18:20:35.107Z,154.47
2018-11-23T18:23:24.035Z,133.77
2018-11-23T18:25:53.343Z,112.17
2018-11-23T18:28:22.694Z,83.60
2018-11-23T18:30:52.081Z,90.93
2018-11-23T18:33:21.146Z,92.20
2018-11-23T18:35:50.843Z,98.17
2018-11-23T18:38:20.182Z,102.27
2018-11-23T18:40:49.423Z,128.47
2018-11-23T18:43:18.811Z,176.70
2018-11-23T18:45:47.915Z,178.37
2018-11-23T18:48:17.039Z,179.00
2018-11-23T18:50:46.371Z,197.67
2018-11-23T18:53:15.599Z,172.20
2018-11-23T18:55:44.723Z,161.37
2018-11-23T18:58:13.882Z,148.50
2018-11-23T19:00:43.214Z,141.30
2018-11-23T19:03:12.608Z,134.83
2018-11-23T19:05:42.056Z,109.33
2018-11-23T19:08:11.239Z,103.67
2018-11-23T19:10:40.423Z,109.47
2018-11-23T19:13:09.687Z,70.23
2018-11-23T19:15:39.028Z,67.27
2018-11-23T19:18:08.123Z,45.87
2018-11-23T19:20:37.867Z,43.83
2018-11-23T19:23:07.219Z,46.00
2018-11-23T19:25:36.430Z,40.60
2018-11-23T19:28:05.911Z,27.00
2018-11-23T19:30:35.020Z,38.03
2018-11-23T19:33:04.226Z,34.00
2018-11-23T19:35:33.734Z,24.70
2018-11-23T19:38:03.028Z,19.93
2018-11-23T19:40:32.333Z,19.53
2018-11-23T19:43:01.679Z,16.37
2018-11-23T19:45:30.932Z,17.80
2018-11-23T19:48:00.131Z,16.93
2018-11-23T19:50:29.575Z,18.53
2018-11-23T19:52:58.811Z,21.77
2018-11-23T19:55:28.118Z,18.97
2018-11-23T19:57:57.543Z,21.03
2018-11-23T20:00:27.498Z,25.13
2018-11-23T20:02:56.798Z,23.50
2018-11-23T20:05:26.248Z,23.77
2018-11-23T20:07:56.492Z,24.20
2018-11-23T20:10:26.213Z,24.43
2018-11-23T20:12:57.290Z,24.47
2018-11-23T20:15:28.676Z,24.40
2018-11-23T20:17:59.130Z,24.60
2018-11-23T20:20:31.082Z,24.73
2018-11-23T20:23:00.655Z,25.23
2018-11-23T20:25:31.624Z,25.53
2018-11-23T20:28:00.840Z,26.47
2018-11-23T20:30:30.215Z,23.87
2018-11-23T20:33:01.002Z,25.20
2018-11-23T20:35:30.763Z,26.03
2018-11-23T20:38:00.351Z,26.97
2018-11-23T20:40:29.888Z,25.50
2018-11-23T20:43:00.451Z,23.07
2018-11-23T20:45:31.058Z,26.10
2018-11-23T20:48:01.019Z,26.33
2018-11-23T20:50:31.777Z,27.27
2018-11-23T20:53:02.230Z,26.57
2018-11-23T20:55:32.893Z,30.67
2018-11-23T20:58:02.422Z,26.37
2018-11-23T21:00:31.927Z,27.23
2018-11-23T21:03:01.651Z,30.97
2018-11-23T21:05:31.922Z,25.73
2018-11-23T21:08:02.595Z,25.27
2018-11-23T21:10:33.123Z,23.97
2018-11-23T21:13:02.763Z,23.33
2018-11-23T21:15:33.502Z,22.37
2018-11-23T21:18:04.028Z,23.27
2018-11-23T21:20:34.265Z,21.33
2018-11-23T21:23:03.735Z,20.53
2018-11-23T21:25:33.847Z,20.97
2018-11-23T21:28:03.122Z,22.30
2018-11-23T21:30:32.408Z,21.80
2018-11-23T21:33:01.671Z,22.37
2018-11-23T21:35:31.752Z,22.10
2018-11-23T21:38:00.975Z,21.23
2018-11-23T21:40:30.343Z,20.80
2018-11-23T21:42:59.451Z,22.90
2018-11-23T21:45:28.871Z,18.03
2018-11-23T21:47:58.138Z,18.20
2018-11-23T21:50:27.437Z,21.10
2018-11-23T21:52:56.950Z,18.57
2018-11-23T21:55:26.462Z,21.47
2018-11-23T21:57:56.621Z,21.23
2018-11-23T22:00:25.843Z,17.47
2018-11-23T22:02:55.039Z,17.73
2018-11-23T22:05:24.322Z,19.00
2018-11-23T22:07:53.433Z,17.33
2018-11-23T22:10:22.875Z,19.40
2018-11-23T22:12:52.455Z,17.37
2018-11-23T22:15:23.591Z,18.47
2018-11-23T22:17:54.975Z,18.03
2018-11-23T22:20:24.751Z,18.13
2018-11-23T22:22:53.939Z,18.87
2018-11-23T22:25:24.063Z,18.97
2018-11-23T22:27:53.279Z,20.23
2018-11-23T22:30:27.880Z,20.13
2018-11-23T22:32:56.967Z,17.93
2018-11-23T22:35:26.574Z,27.30
2018-11-23T22:37:56.253Z,21.67
2018-11-23T22:40:25.582Z,18.83
2018-11-23T22:42:56.386Z,22.47
2018-11-23T22:45:25.627Z,21.23
2018-11-23T22:47:54.727Z,19.93
2018-11-23T22:50:24.582Z,20.10
2018-11-23T22:52:53.718Z,19.07
2018-11-23T22:55:23.030Z,18.40
2018-11-23T22:57:52.680Z,22.00
2018-11-23T23:01:28.462Z,21.07
2018-11-23T23:03:57.909Z,20.57
2018-11-23T23:06:27.111Z,22.23
2018-11-23T23:08:56.303Z,19.53
2018-11-23T23:11:25.631Z,19.63
2018-11-23T23:13:54.787Z,21.93
2018-11-23T23:16:23.890Z,17.97
2018-11-23T23:18:53.186Z,16.90
2018-11-23T23:21:22.476Z,18.17
2018-11-23T23:23:51.683Z,15.87
2018-11-23T23:26:21.399Z,16.13
2018-11-23T23:28:50.498Z,17.87
2018-11-23T23:31:19.682Z,17.27
2018-11-23T23:33:48.927Z,16.10
2018-11-23T23:36:18.187Z,17.70
2018-11-23T23:38:47.485Z,15.87
2018-11-23T23:41:16.850Z,15.70
2018-11-23T23:43:46.035Z,17.20
2018-11-23T23:46:15.291Z,15.23
2018-11-23T23:48:44.519Z,16.30
2018-11-23T23:51:13.771Z,14.97
2018-11-23T23:53:43.071Z,18.33
2018-11-23T23:56:12.495Z,16.70
2018-11-23T23:58:41.571Z,16.33
